»·PEaware :: N487T KBUR-KLAS

N487T :: KBUR-KLAS

FLIGHT INFORMATION

Flight Status: Arrived
Operator: Privately registered:
United States
More flights under this callsign
Pilot: Ron W. (19735)
Aircraft: BEECH AIRCRAFT DEBONAIR BONANZA
(BE33)
More flights by this aircraft type
Origin: KBUR Bob Hope-Burbank
United States
Destination: KLAS McCarran Intl
United States
More flights between these airports :: More routes between these airports
Route: +VNY3 DAG CRESO4
File this flight plan on PilotEdge
Remarks: I-5 Rating
Altitude:
(Current/Filed)
11,000ft
Speed:
(Current/Filed)
120kts
Departed: 31-Jul-18 03:09 PM
Arrived: 31-Jul-18 04:53 PM
Distance/Time
Traveled:
193nm/1:44
Distance/Time
To Go:
Arrived

Flight Plot

Page will automatically refresh every two minutes.

Flight plan parsing failed; only flown route is shown


Map Options




Map Legend


Flown Route
Filed Route
Departure Airport
Arrival Airport
Navaid (VOR, NDB)
Fix

Horizontal Profiles

Position Reports

Time Latitude Longitude Heading Altitude Ground
Speed
31-Jul-18 14:52 34.196339 -118.367564 358 781ft 0kts
31-Jul-18 14:53 34.196339 -118.367564 358 781ft 0kts
31-Jul-18 14:54 34.196339 -118.367564 358 781ft 0kts
31-Jul-18 14:55 34.196339 -118.367564 358 781ft 0kts
31-Jul-18 14:56 34.196339 -118.367564 358 781ft 0kts
31-Jul-18 14:57 34.196339 -118.367564 358 781ft 0kts
31-Jul-18 14:58 34.196339 -118.367564 358 781ft 0kts
31-Jul-18 14:59 34.196339 -118.367564 358 781ft 0kts
31-Jul-18 15:00 34.196339 -118.367564 358 781ft 0kts
31-Jul-18 15:01 34.196487 -118.367325 85 781ft 5kts
31-Jul-18 15:02 34.196928 -118.368669 277 781ft 5kts
31-Jul-18 15:03 34.197000 -118.368935 306 781ft 0kts
31-Jul-18 15:04 34.197018 -118.368965 307 781ft 1kts
31-Jul-18 15:05 34.197044 -118.368996 318 781ft 0kts
31-Jul-18 15:10 34.195838 -118.338163 127 1341ft 109kts
31-Jul-18 15:11 34.172008 -118.347103 226 2315ft 101kts
31-Jul-18 15:12 34.153811 -118.370607 226 3293ft 91kts
31-Jul-18 15:13 34.137800 -118.391296 227 4251ft 75kts
31-Jul-18 15:14 34.119902 -118.406148 242 4907ft 84kts
31-Jul-18 15:15 34.136595 -118.427055 348 5514ft 103kts
31-Jul-18 15:16 34.163209 -118.433574 348 6343ft 98kts
31-Jul-18 15:17 34.193119 -118.440597 348 6880ft 119kts
31-Jul-18 15:18 34.226388 -118.448264 348 7386ft 124kts
31-Jul-18 15:19 34.260395 -118.456095 348 7886ft 125kts
31-Jul-18 15:20 34.294684 -118.463980 348 8383ft 125kts
31-Jul-18 15:21 34.328864 -118.471836 348 8879ft 124kts
31-Jul-18 15:22 34.362609 -118.479595 348 9372ft 122kts
31-Jul-18 15:23 34.393592 -118.476641 56 9855ft 120kts
31-Jul-18 15:24 34.407006 -118.440147 66 10349ft 117kts
31-Jul-18 15:25 34.422928 -118.407322 37 10846ft 111kts
31-Jul-18 15:26 34.444138 -118.376205 62 10951ft 135kts
31-Jul-18 15:27 34.462477 -118.333659 53 10948ft 147kts
31-Jul-18 15:28 34.487214 -118.293345 53 10973ft 150kts
31-Jul-18 15:29 34.512323 -118.252480 53 10972ft 152kts
31-Jul-18 15:30 34.537244 -118.211817 53 10968ft 144kts
31-Jul-18 15:31 34.560668 -118.174905 52 10970ft 134kts
31-Jul-18 15:32 34.582919 -118.139991 51 10971ft 130kts
31-Jul-18 15:33 34.604881 -118.105536 51 10972ft 128kts
31-Jul-18 15:34 34.625601 -118.070530 62 10972ft 127kts
31-Jul-18 15:35 34.637145 -118.030244 76 10972ft 127kts
31-Jul-18 15:36 34.644687 -117.988493 79 10972ft 127kts
31-Jul-18 15:37 34.650883 -117.946261 79 10972ft 127kts
31-Jul-18 15:38 34.654952 -117.903854 83 10972ft 126kts
31-Jul-18 15:39 34.659383 -117.859043 82 10976ft 142kts
31-Jul-18 15:40 34.665038 -117.809705 81 10973ft 150kts
31-Jul-18 15:41 34.671508 -117.759290 72 10970ft 152kts
31-Jul-18 15:42 34.685312 -117.711016 69 10971ft 152kts
31-Jul-18 15:43 34.698265 -117.662053 71 10972ft 152kts
31-Jul-18 15:44 34.711200 -117.613086 71 10972ft 152kts
31-Jul-18 15:45 34.724160 -117.564042 71 10972ft 152kts
31-Jul-18 15:46 34.737155 -117.514886 71 10972ft 152kts
31-Jul-18 15:47 34.749931 -117.465780 71 10972ft 152kts
31-Jul-18 15:48 34.762887 -117.416794 71 10972ft 152kts
31-Jul-18 15:49 34.775229 -117.367340 72 10972ft 152kts
31-Jul-18 15:50 34.787347 -117.318680 72 10972ft 152kts
31-Jul-18 15:51 34.799622 -117.269406 72 10972ft 152kts
31-Jul-18 15:52 34.811955 -117.219918 72 10999ft 150kts
31-Jul-18 15:53 34.823962 -117.171456 74 11045ft 151kts
31-Jul-18 15:54 34.834790 -117.121945 74 11045ft 152kts
31-Jul-18 15:55 34.845689 -117.072090 74 11045ft 152kts
31-Jul-18 15:56 34.856679 -117.021879 74 11045ft 154kts
31-Jul-18 15:57 34.867654 -116.971620 74 11043ft 151kts
31-Jul-18 15:58 34.878498 -116.924170 73 11044ft 143kts
31-Jul-18 15:59 34.889389 -116.877790 73 11046ft 143kts
31-Jul-18 16:00 34.900393 -116.830921 73 11045ft 143kts
31-Jul-18 16:01 34.911376 -116.784154 73 11045ft 144kts
31-Jul-18 16:02 34.922430 -116.737104 73 11045ft 144kts
31-Jul-18 16:03 34.933471 -116.690134 73 11045ft 144kts
31-Jul-18 16:04 34.944525 -116.643130 73 11045ft 144kts
31-Jul-18 16:05 34.955555 -116.596222 73 11045ft 144kts
31-Jul-18 16:06 34.971005 -116.551545 58 11046ft 144kts
31-Jul-18 16:07 34.991642 -116.509436 61 11044ft 144kts
31-Jul-18 16:08 35.009760 -116.465935 62 11045ft 144kts
31-Jul-18 16:09 35.027915 -116.422266 62 11045ft 144kts
31-Jul-18 16:10 35.046065 -116.378598 62 11046ft 144kts
31-Jul-18 16:11 35.064215 -116.334519 63 11045ft 146kts
31-Jul-18 16:12 35.082330 -116.290016 63 11045ft 147kts
31-Jul-18 16:13 35.100687 -116.245351 63 11045ft 146kts
31-Jul-18 16:14 35.119369 -116.200988 62 11045ft 148kts
31-Jul-18 16:15 35.138041 -116.155908 62 11045ft 148kts
31-Jul-18 16:16 35.153547 -116.118371 62 11045ft 148kts
31-Jul-18 16:17 35.177945 -116.067907 50 11046ft 148kts
31-Jul-18 16:18 35.195723 -116.022509 66 11045ft 148kts
31-Jul-18 16:19 35.212922 -115.976684 64 11045ft 148kts
31-Jul-18 16:20 35.231556 -115.941231 55 11045ft 148kts
31-Jul-18 16:21 35.254781 -115.899265 55 11045ft 148kts
31-Jul-18 16:22 35.277591 -115.857189 56 11045ft 148kts
31-Jul-18 16:23 35.300224 -115.814714 56 11045ft 148kts
31-Jul-18 16:24 35.332597 -115.771691 45 11044ft 148kts
31-Jul-18 16:25 35.356255 -115.740889 46 11045ft 148kts
31-Jul-18 16:26 35.384514 -115.703921 46 11045ft 148kts
31-Jul-18 16:27 35.412752 -115.666970 46 11045ft 148kts
31-Jul-18 16:28 35.440908 -115.629670 47 11045ft 148kts
31-Jul-18 16:29 35.468557 -115.591991 48 11045ft 149kts
31-Jul-18 16:30 35.495789 -115.553762 48 11045ft 149kts
31-Jul-18 16:31 35.523072 -115.515445 48 11045ft 149kts
31-Jul-18 16:32 35.550291 -115.477212 48 11045ft 149kts
31-Jul-18 16:33 35.577526 -115.438946 48 11045ft 149kts
31-Jul-18 16:34 35.605221 -115.400032 48 10785ft 164kts
31-Jul-18 16:35 35.637422 -115.354714 48 10043ft 174kts
31-Jul-18 16:36 35.667094 -115.312998 48 10043ft 156kts
31-Jul-18 16:37 35.695055 -115.273685 48 10059ft 150kts
31-Jul-18 16:38 35.721296 -115.236699 48 10061ft 137kts
31-Jul-18 16:39 35.745827 -115.202217 48 10063ft 132kts
31-Jul-18 16:40 35.769797 -115.168529 48 10064ft 130kts
31-Jul-18 16:41 35.793887 -115.134661 48 10064ft 132kts
31-Jul-18 16:42 35.818164 -115.100680 42 10062ft 132kts
31-Jul-18 16:43 35.856393 -115.096001 0 9386ft 155kts
31-Jul-18 16:44 35.901260 -115.095222 0 8404ft 166kts
31-Jul-18 16:45 35.947741 -115.094458 0 7411ft 168kts
31-Jul-18 16:46 35.991333 -115.093706 0 7055ft 138kts
31-Jul-18 16:47 36.026442 -115.093124 0 7061ft 119kts
31-Jul-18 16:48 36.058834 -115.092595 0 7062ft 114kts
31-Jul-18 16:49 36.090346 -115.092101 0 6994ft 119kts
31-Jul-18 16:50 36.126255 -115.093348 353 6012ft 123kts
31-Jul-18 16:51 36.152578 -115.113388 270 4245ft 127kts
31-Jul-18 16:52 36.129783 -115.138187 205 3060ft 99kts
31-Jul-18 16:53 36.106378 -115.152419 205 2419ft 87kts
31-Jul-18 16:54 36.089217 -115.162446 204 2185ft 33kts
31-Jul-18 16:55 36.085565 -115.164617 211 2185ft 10kts
31-Jul-18 16:56 36.082898 -115.167571 214 2185ft 5kts
31-Jul-18 16:57 36.081531 -115.169325 241 2185ft 8kts
31-Jul-18 16:58 36.081024 -115.170852 166 2185ft 2kts
31-Jul-18 16:59 36.080948 -115.170745 101 2185ft 0kts

Navigation Log

Ident Type
Flight plan parsing failed, navigation log unavailable